createdAt,value
2019-01-15T00:00:05.899Z,29.4
2019-01-15T00:00:56.218Z,29.4
2019-01-15T00:01:46.500Z,29.6
2019-01-15T00:02:35.985Z,29.6
2019-01-15T00:03:26.341Z,29.4
2019-01-15T00:04:16.453Z,29.3
2019-01-15T00:05:06.294Z,29.1
2019-01-15T00:05:56.768Z,28.9
2019-01-15T00:06:46.551Z,28.8
2019-01-15T00:07:36.297Z,28.7
2019-01-15T00:08:26.422Z,28.5
2019-01-15T00:09:16.768Z,28.4
2019-01-15T00:10:05.732Z,28.2
2019-01-15T00:10:56.303Z,28.1
2019-01-15T00:11:47.177Z,27
2019-01-15T00:12:36.925Z,26.3
2019-01-15T00:13:26.448Z,25.9
2019-01-15T00:14:16.817Z,25.9
2019-01-15T00:15:06.927Z,26.1
2019-01-15T00:15:57.210Z,26.3
2019-01-15T00:16:47.508Z,26.6
2019-01-15T00:17:37.267Z,26.8
2019-01-15T00:18:27.374Z,27
2019-01-15T00:19:17.107Z,27.3
2019-01-15T00:20:07.782Z,27.5
2019-01-15T00:20:57.545Z,27.7
2019-01-15T00:21:47.587Z,27.9
2019-01-15T00:22:37.364Z,28.1
2019-01-15T00:23:27.732Z,28.2
2019-01-15T00:24:17.476Z,28.4
2019-01-15T00:25:08.188Z,28.5
2019-01-15T00:25:57.043Z,28.6
2019-01-15T00:26:47.894Z,28.8
2019-01-15T00:27:38.379Z,28.8
2019-01-15T00:28:27.729Z,28.9
2019-01-15T00:29:18.416Z,29.1
2019-01-15T00:30:07.646Z,29.1
2019-01-15T00:30:57.899Z,29.3
2019-01-15T00:31:48.176Z,29.3
2019-01-15T00:32:38.574Z,29.4
2019-01-15T00:33:28.663Z,29.5
2019-01-15T00:34:17.863Z,29.6
2019-01-15T00:35:08.146Z,29.6
2019-01-15T00:35:58.511Z,29.4
2019-01-15T00:36:49.978Z,29.1
2019-01-15T00:37:38.701Z,28.6
2019-01-15T00:38:28.426Z,27.6
2019-01-15T00:39:19.048Z,27.2
2019-01-15T00:40:08.933Z,27.1
2019-01-15T00:40:58.290Z,27.2
2019-01-15T00:41:48.088Z,27.4
2019-01-15T00:42:38.971Z,27.6
2019-01-15T00:43:31.018Z,27.7
2019-01-15T00:44:18.256Z,27.9
2019-01-15T00:45:09.194Z,28.1
2019-01-15T00:45:59.258Z,28.3
2019-01-15T00:46:49.538Z,28.4
2019-01-15T00:47:39.299Z,28.6
2019-01-15T00:48:29.640Z,28.8
2019-01-15T00:49:19.208Z,28.9
2019-01-15T00:50:09.370Z,29
2019-01-15T00:50:59.533Z,29.1
2019-01-15T00:51:49.920Z,29.2
2019-01-15T00:52:39.977Z,29.3
2019-01-15T00:53:30.001Z,29.4
2019-01-15T00:54:19.509Z,29.5
2019-01-15T00:55:09.543Z,29.6
2019-01-15T00:55:59.310Z,29.6
2019-01-15T00:56:49.922Z,29.4
2019-01-15T00:57:39.745Z,29.3
2019-01-15T00:58:29.752Z,29.1
2019-01-15T00:59:19.837Z,29
2019-01-15T01:00:09.325Z,28.8
2019-01-15T01:00:59.670Z,28.7
2019-01-15T01:01:50.080Z,28.5
2019-01-15T01:02:40.107Z,28.4
2019-01-15T01:03:30.647Z,28.3
2019-01-15T01:04:20.177Z,28.1
2019-01-15T01:05:10.572Z,27.9
2019-01-15T01:06:00.889Z,26.8
2019-01-15T01:06:50.397Z,26.1
2019-01-15T01:07:40.998Z,25.9
2019-01-15T01:08:29.966Z,26
2019-01-15T01:09:20.774Z,26.2
2019-01-15T01:10:10.661Z,26.4
2019-01-15T01:11:01.186Z,26.7
2019-01-15T01:11:51.226Z,26.9
2019-01-15T01:12:41.003Z,27.2
2019-01-15T01:13:31.114Z,27.4
2019-01-15T01:14:21.181Z,27.6
2019-01-15T01:15:10.909Z,27.8
2019-01-15T01:16:00.956Z,27.9
2019-01-15T01:16:51.326Z,28.1
2019-01-15T01:17:41.351Z,28.3
2019-01-15T01:18:31.152Z,28.4
2019-01-15T01:19:21.446Z,28.6
2019-01-15T01:20:11.490Z,28.7
2019-01-15T01:21:01.308Z,28.8
2019-01-15T01:21:51.104Z,28.9
2019-01-15T01:22:41.126Z,29
2019-01-15T01:23:31.460Z,29.1
2019-01-15T01:24:21.808Z,29.2
2019-01-15T01:25:11.861Z,29.3
2019-01-15T01:26:02.235Z,29.3
2019-01-15T01:26:52.228Z,29.4
2019-01-15T01:27:42.001Z,29.5
2019-01-15T01:28:31.841Z,29.6
2019-01-15T01:29:21.836Z,29.6
2019-01-15T01:30:12.181Z,29.4
2019-01-15T01:31:02.037Z,29.3
2019-01-15T01:31:52.295Z,29.1
2019-01-15T01:32:42.654Z,29
2019-01-15T01:33:31.860Z,28.9
2019-01-15T01:34:22.225Z,28.7
2019-01-15T01:35:11.770Z,28.6
2019-01-15T01:36:02.340Z,28.4
2019-01-15T01:36:52.367Z,28.3
2019-01-15T01:37:42.985Z,28.1
2019-01-15T01:38:31.902Z,28
2019-01-15T01:39:21.762Z,26.7
2019-01-15T01:40:12.105Z,26.1
2019-01-15T01:41:01.887Z,25.9
2019-01-15T01:41:51.792Z,26
2019-01-15T01:42:42.474Z,26.2
2019-01-15T01:43:33.127Z,26.5
2019-01-15T01:44:23.157Z,26.7
2019-01-15T01:45:13.476Z,26.9
2019-01-15T01:46:02.714Z,27.1
2019-01-15T01:46:52.759Z,27.3
2019-01-15T01:47:43.092Z,27.6
2019-01-15T01:48:33.416Z,27.8
2019-01-15T01:49:23.494Z,27.9
2019-01-15T01:50:13.792Z,28.1
2019-01-15T01:51:03.104Z,28.2
2019-01-15T01:51:53.696Z,28.4
2019-01-15T01:52:42.616Z,28.4
2019-01-15T01:53:33.550Z,28.6
2019-01-15T01:54:23.263Z,28.7
2019-01-15T01:55:13.856Z,28.8
2019-01-15T01:56:03.448Z,28.9
2019-01-15T01:56:54.048Z,29
2019-01-15T01:57:44.043Z,29.1
2019-01-15T01:58:33.838Z,29.2
2019-01-15T01:59:23.928Z,29.3
2019-01-15T02:00:14.503Z,29.4
2019-01-15T02:01:03.453Z,29.4
2019-01-15T02:01:54.403Z,29.5
2019-01-15T02:02:44.363Z,29.6
2019-01-15T02:03:34.166Z,29.6
2019-01-15T02:04:24.513Z,29.5
2019-01-15T02:05:14.038Z,29.3
2019-01-15T02:06:04.330Z,29.2
2019-01-15T02:06:54.707Z,29
2019-01-15T02:07:44.230Z,28.9
2019-01-15T02:08:35.060Z,28.8
2019-01-15T02:09:24.878Z,28.6
2019-01-15T02:10:14.428Z,28.4
2019-01-15T02:11:04.395Z,28.3
2019-01-15T02:11:54.987Z,28.1
2019-01-15T02:12:46.248Z,28
2019-01-15T02:13:35.107Z,26.8
2019-01-15T02:14:24.902Z,26.1
2019-01-15T02:15:14.949Z,26
2019-01-15T02:16:05.102Z,26.1
2019-01-15T02:16:55.147Z,26.2
2019-01-15T02:17:45.160Z,26.5
2019-01-15T02:18:35.182Z,26.7
2019-01-15T02:19:25.534Z,26.9
2019-01-15T02:20:15.844Z,27.2
2019-01-15T02:21:05.094Z,27.4
2019-01-15T02:21:55.677Z,27.6
2019-01-15T02:22:45.205Z,27.7
2019-01-15T02:23:35.516Z,27.6
2019-01-15T02:24:26.123Z,27.3
2019-01-15T02:25:16.252Z,26.3
2019-01-15T02:26:05.489Z,25.6
2019-01-15T02:26:57.444Z,25.4
2019-01-15T02:27:45.259Z,25.6
2019-01-15T02:28:36.186Z,26.1
2019-01-15T02:29:25.091Z,26.4
2019-01-15T02:30:16.344Z,26.6
2019-01-15T02:31:06.358Z,26.8
2019-01-15T02:31:56.154Z,27
2019-01-15T02:32:46.493Z,27.3
2019-01-15T02:33:36.518Z,27.5
2019-01-15T02:34:26.893Z,27.6
2019-01-15T02:36:06.949Z,28
2019-01-15T02:36:56.521Z,28.1
2019-01-15T02:37:46.526Z,28.3
2019-01-15T02:38:36.849Z,28.4
2019-01-15T02:39:26.883Z,28.6
2019-01-15T02:40:17.321Z,28.7
2019-01-15T02:41:06.527Z,28.8
2019-01-15T02:41:56.800Z,28.9
2019-01-15T02:42:56.549Z,29
2019-01-15T02:43:36.957Z,29.1
2019-01-15T02:44:27.043Z,29.2
2019-01-15T02:45:16.866Z,29.3
2019-01-15T02:46:07.671Z,29.4
2019-01-15T02:46:56.369Z,29.4
2019-01-15T02:47:47.230Z,29.5
2019-01-15T02:48:36.980Z,29.6
2019-01-15T02:49:27.205Z,29.5
2019-01-15T02:50:17.458Z,29.4
2019-01-15T02:51:07.682Z,29.2
2019-01-15T02:51:57.817Z,29.1
2019-01-15T02:52:47.617Z,28.9
2019-01-15T02:53:37.595Z,28.8
2019-01-15T02:54:27.462Z,28.6
2019-01-15T02:55:18.030Z,28.4
2019-01-15T02:56:07.829Z,28.3
2019-01-15T02:56:58.173Z,28.2
2019-01-15T02:57:47.565Z,27.6
2019-01-15T02:58:37.458Z,26.6
2019-01-15T02:59:28.330Z,26.1
2019-01-15T03:00:18.434Z,25.9
2019-01-15T03:01:08.392Z,26.1
2019-01-15T03:01:57.944Z,26.2
2019-01-15T03:02:48.559Z,26.5
2019-01-15T03:03:38.522Z,26.8
2019-01-15T03:04:28.602Z,26.9
2019-01-15T03:05:18.374Z,27.1
2019-01-15T03:08:51.850Z,27.9
2019-01-15T03:09:41.795Z,28.1
2019-01-15T03:10:31.031Z,28.3
2019-01-15T03:11:21.181Z,28.4
2019-01-15T03:12:11.213Z,28.5
2019-01-15T03:13:05.406Z,28.6
2019-01-15T03:13:51.806Z,28.7
2019-01-15T03:14:41.040Z,28.8
2019-01-15T03:15:31.959Z,28.9
2019-01-15T03:16:22.716Z,28.9
2019-01-15T03:17:12.760Z,29.1
2019-01-15T03:18:02.748Z,29.1
2019-01-15T03:18:54.218Z,29.2
2019-01-15T03:19:42.132Z,29.3
2019-01-15T03:20:32.454Z,29.3
2019-01-15T03:21:23.083Z,29.4
2019-01-15T03:22:13.121Z,29.4
2019-01-15T03:23:03.027Z,29.5
2019-01-15T03:23:52.661Z,29.6
2019-01-15T03:24:42.479Z,29.6
2019-01-15T03:25:32.930Z,29.4
2019-01-15T03:26:22.910Z,29.3
2019-01-15T03:27:12.946Z,29.1
2019-01-15T03:28:03.526Z,29
2019-01-15T03:28:51.952Z,28.9
2019-01-15T03:29:43.370Z,28.7
2019-01-15T03:30:33.028Z,28.5
2019-01-15T03:31:23.528Z,28.4
2019-01-15T03:32:13.896Z,28.3
2019-01-15T03:33:04.126Z,28.1
2019-01-15T03:33:53.738Z,27.9
2019-01-15T03:34:43.777Z,26.8
2019-01-15T03:35:33.223Z,26.1
2019-01-15T03:36:23.522Z,25.9
2019-01-15T03:37:13.601Z,26
2019-01-15T03:38:04.019Z,26.1
2019-01-15T03:38:53.979Z,26.4
2019-01-15T03:39:43.712Z,26.6
2019-01-15T03:40:33.960Z,26.8
2019-01-15T03:41:23.646Z,27
2019-01-15T03:42:14.224Z,27.3
2019-01-15T03:43:13.474Z,27.4
2019-01-15T03:43:54.204Z,27.6
2019-01-15T03:45:34.716Z,27.9
2019-01-15T03:46:24.188Z,28.1
2019-01-15T03:47:13.721Z,28.2
2019-01-15T03:48:04.678Z,28.3
2019-01-15T03:48:54.454Z,28.4
2019-01-15T03:49:44.411Z,28.5
2019-01-15T03:50:34.286Z,28.6
2019-01-15T03:51:24.553Z,28.7
2019-01-15T03:52:14.336Z,28.7
2019-01-15T03:53:05.254Z,28.5
2019-01-15T03:53:55.036Z,28.1
2019-01-15T03:54:45.313Z,27.1
2019-01-15T03:55:34.872Z,26.6
2019-01-15T03:56:24.574Z,26.5
2019-01-15T03:57:14.899Z,26.6
2019-01-15T03:58:04.729Z,26.9
2019-01-15T03:58:55.043Z,27.1
2019-01-15T03:59:44.693Z,27.2
2019-01-15T04:00:35.133Z,27.3
2019-01-15T04:01:25.578Z,27.5
2019-01-15T04:02:15.840Z,27.7
2019-01-15T04:03:55.419Z,28
2019-01-15T04:04:45.474Z,28.1
2019-01-15T04:05:35.787Z,28.3
2019-01-15T04:06:25.877Z,28.4
2019-01-15T04:07:15.875Z,28.5
2019-01-15T04:08:05.703Z,28.6
2019-01-15T04:08:56.351Z,28.7
2019-01-15T04:09:45.530Z,28.8
2019-01-15T04:10:35.648Z,28.9
2019-01-15T04:11:26.412Z,28.9
2019-01-15T04:12:15.950Z,29.1
2019-01-15T04:13:13.889Z,29.1
2019-01-15T04:13:56.092Z,29.2
2019-01-15T04:14:46.672Z,29.3
2019-01-15T04:15:36.490Z,29.4
2019-01-15T04:16:26.499Z,29.4
2019-01-15T04:17:16.620Z,29.4
2019-01-15T04:18:06.944Z,29.5
2019-01-15T04:18:58.732Z,29.6
2019-01-15T04:19:46.775Z,29.6
2019-01-15T04:20:36.835Z,29.5
2019-01-15T04:21:26.004Z,29.4
2019-01-15T04:22:15.761Z,29.2
2019-01-15T04:23:06.740Z,29.1
2019-01-15T04:23:57.324Z,28.9
2019-01-15T04:24:46.779Z,28.8
2019-01-15T04:25:38.558Z,28.6
2019-01-15T04:26:26.156Z,28.4
2019-01-15T04:27:17.209Z,28.3
2019-01-15T04:28:06.741Z,28.1
2019-01-15T04:28:56.509Z,28
2019-01-15T04:29:47.676Z,26.9
2019-01-15T04:30:37.513Z,26.1
2019-01-15T04:31:27.654Z,26
2019-01-15T04:32:17.353Z,26.1
2019-01-15T04:33:07.657Z,26.2
2019-01-15T04:33:57.512Z,26.4
2019-01-15T04:34:49.756Z,26.6
2019-01-15T04:35:37.493Z,26.9
2019-01-15T04:36:27.576Z,27.1
2019-01-15T04:37:17.988Z,27.3
2019-01-15T04:38:07.991Z,27.4
2019-01-15T04:38:58.321Z,27.6
2019-01-15T04:40:37.876Z,27.9
2019-01-15T04:41:28.048Z,28.1
2019-01-15T04:42:18.240Z,28.3
2019-01-15T04:43:08.026Z,28.3
2019-01-15T04:43:57.609Z,28.5
2019-01-15T04:44:48.151Z,28.6
2019-01-15T04:45:38.485Z,28.6
2019-01-15T04:46:28.914Z,28.8
2019-01-15T04:47:17.773Z,28.9
2019-01-15T04:48:08.883Z,28.9
2019-01-15T04:48:58.990Z,29
2019-01-15T04:49:48.236Z,29.1
2019-01-15T04:50:38.507Z,29.1
2019-01-15T04:51:28.875Z,29.3
2019-01-15T04:52:18.680Z,29.3
2019-01-15T04:53:09.180Z,29.3
2019-01-15T04:53:58.765Z,29.4
2019-01-15T04:54:49.088Z,29.5
2019-01-15T04:55:38.887Z,29.5
2019-01-15T04:56:28.949Z,29.6
2019-01-15T04:57:19.617Z,29.6
2019-01-15T04:58:09.091Z,29.4
2019-01-15T04:58:58.579Z,29.3
2019-01-15T04:59:48.903Z,29.1
2019-01-15T05:00:39.250Z,28.9
2019-01-15T05:01:29.292Z,28.8
2019-01-15T05:02:19.954Z,28.6
2019-01-15T05:03:09.793Z,28.5
2019-01-15T05:03:59.205Z,28.3
2019-01-15T05:04:49.224Z,28.2
2019-01-15T05:05:39.561Z,28.1
2019-01-15T05:06:29.349Z,27.9
2019-01-15T05:07:19.956Z,26.7
2019-01-15T05:08:09.776Z,26.3
2019-01-15T05:09:00.017Z,26.3
2019-01-15T05:09:49.349Z,26.4
2019-01-15T05:10:40.205Z,26.6
2019-01-15T05:11:29.704Z,26.8
2019-01-15T05:12:20.529Z,27
2019-01-15T05:13:10.398Z,27.2
2019-01-15T05:14:00.431Z,27.4
2019-01-15T05:14:49.608Z,27.6
2019-01-15T05:15:40.248Z,27.8
2019-01-15T05:16:30.042Z,27.9
2019-01-15T05:17:20.047Z,28.1
2019-01-15T05:18:09.868Z,28.2
2019-01-15T05:18:59.906Z,28.3
2019-01-15T05:19:49.935Z,28.1
2019-01-15T05:20:40.621Z,27.7
2019-01-15T05:21:30.939Z,27.4
2019-01-15T05:22:20.726Z,27
2019-01-15T05:23:11.051Z,26.2
2019-01-15T05:24:01.078Z,25.3
2019-01-15T05:24:50.926Z,24.7
2019-01-15T05:25:39.914Z,24.5
2019-01-15T05:26:33.191Z,24.8
2019-01-15T05:27:20.553Z,25.3
2019-01-15T05:28:10.615Z,25.8
2019-01-15T05:28:59.880Z,26.1
2019-01-15T05:29:51.231Z,26.4
2019-01-15T05:30:41.580Z,26.7
2019-01-15T05:31:31.603Z,26.9
2019-01-15T05:32:21.697Z,27.1
2019-01-15T05:33:11.736Z,27.3
2019-01-15T05:34:01.774Z,27.5
2019-01-15T05:34:51.527Z,27.7
2019-01-15T05:36:32.170Z,28
2019-01-15T05:37:22.303Z,28.1
2019-01-15T05:38:11.709Z,28.3
2019-01-15T05:39:02.393Z,28.4
2019-01-15T05:39:51.974Z,28.5
2019-01-15T05:40:41.222Z,28.6
2019-01-15T05:41:31.284Z,28.7
2019-01-15T05:42:21.690Z,28.8
2019-01-15T05:43:12.147Z,28.9
2019-01-15T05:44:01.719Z,28.9
2019-01-15T05:44:51.737Z,29
2019-01-15T05:45:41.815Z,29.1
2019-01-15T05:46:31.579Z,29.2
2019-01-15T05:47:22.141Z,29.3
2019-01-15T05:48:12.737Z,29.3
2019-01-15T05:49:02.721Z,29.4
2019-01-15T05:49:54.202Z,29.4
2019-01-15T05:50:42.346Z,29.5
2019-01-15T05:51:32.931Z,29.6
2019-01-15T05:52:22.378Z,29.6
2019-01-15T05:53:12.749Z,29.5
2019-01-15T05:54:02.863Z,29.4
2019-01-15T05:54:52.877Z,29.3
2019-01-15T05:55:43.217Z,29.1
2019-01-15T05:56:33.416Z,28.9
2019-01-15T05:57:23.011Z,28.8
2019-01-15T05:58:13.360Z,28.6
2019-01-15T05:59:02.898Z,28.4
2019-01-15T05:59:52.110Z,28.3
2019-01-15T06:00:43.036Z,28.1
2019-01-15T06:01:32.273Z,27.9
2019-01-15T06:02:23.038Z,26.8
2019-01-15T06:03:13.438Z,26.1
2019-01-15T06:04:03.440Z,26.1
2019-01-15T06:06:51.773Z,26.5
2019-01-15T06:07:43.255Z,26.7
2019-01-15T06:08:31.377Z,26.9
2019-01-15T06:09:21.658Z,27.1
2019-01-15T06:10:11.445Z,27.3
2019-01-15T06:11:01.781Z,27.5
2019-01-15T06:11:51.827Z,27.6
2019-01-15T06:13:31.964Z,27.9
2019-01-15T06:14:21.794Z,28.1
2019-01-15T06:15:12.359Z,28.2
2019-01-15T06:16:02.109Z,28.3
2019-01-15T06:16:52.452Z,28.4
2019-01-15T06:17:41.681Z,28.5
2019-01-15T06:18:32.534Z,28.6
2019-01-15T06:19:22.617Z,28.7
2019-01-15T06:20:12.377Z,28.8
2019-01-15T06:21:02.202Z,28.8
2019-01-15T06:21:52.773Z,28.9
2019-01-15T06:22:42.274Z,29
2019-01-15T06:23:32.876Z,29.1
2019-01-15T06:24:22.936Z,29.1
2019-01-15T06:25:13.197Z,29.2
2019-01-15T06:26:03.059Z,29.3
2019-01-15T06:26:53.194Z,29.3
2019-01-15T06:27:42.920Z,29.2
2019-01-15T06:28:33.513Z,29.1
2019-01-15T06:29:23.261Z,28.9
2019-01-15T06:30:13.351Z,28.8
2019-01-15T06:31:02.611Z,28.6
2019-01-15T06:31:52.601Z,28.5
2019-01-15T06:32:43.550Z,28.3
2019-01-15T06:33:33.465Z,28.1
2019-01-15T06:34:23.475Z,28
2019-01-15T06:35:13.732Z,27.9
2019-01-15T06:36:03.839Z,27.7
2019-01-15T06:36:53.615Z,26.5
2019-01-15T06:37:43.989Z,25.9
2019-01-15T06:38:33.916Z,25.6
2019-01-15T06:39:23.410Z,25.4
2019-01-15T06:40:13.533Z,25.4
2019-01-15T06:41:04.403Z,25.6
2019-01-15T06:41:53.585Z,25.8
2019-01-15T06:42:43.686Z,26
2019-01-15T06:43:33.758Z,26.3
2019-01-15T06:44:24.545Z,26.5
2019-01-15T06:45:14.590Z,26.7
2019-01-15T06:46:04.128Z,26.9
2019-01-15T06:46:53.901Z,27.1
2019-01-15T06:47:44.770Z,27.3
2019-01-15T06:48:33.788Z,27.5
2019-01-15T06:49:24.887Z,27.7
2019-01-15T06:51:04.259Z,27.9
2019-01-15T06:51:54.202Z,28.1
2019-01-15T06:52:44.568Z,28.2
2019-01-15T06:53:34.910Z,28.1
2019-01-15T06:54:25.035Z,28
2019-01-15T06:55:14.733Z,27.3
2019-01-15T06:56:05.068Z,26.4
2019-01-15T06:56:55.114Z,25.5
2019-01-15T06:57:44.932Z,24.9
2019-01-15T06:58:35.519Z,24.8
2019-01-15T06:59:25.057Z,25.2
2019-01-15T07:00:14.645Z,25.6
2019-01-15T07:01:05.201Z,26.1
2019-01-15T07:01:55.504Z,26.4
2019-01-15T07:02:44.459Z,26.6
2019-01-15T07:03:35.252Z,26.8
2019-01-15T07:04:25.619Z,26.9
2019-01-15T07:06:51.202Z,27.5
2019-01-15T07:07:42.059Z,27.7
2019-01-15T07:09:21.880Z,27.9
2019-01-15T07:10:11.383Z,28.1
2019-01-15T07:11:01.706Z,28.3
2019-01-15T07:11:52.043Z,28.3
2019-01-15T07:12:42.131Z,28.4
2019-01-15T07:13:32.161Z,28.4
2019-01-15T07:14:22.509Z,28.3
2019-01-15T07:15:12.593Z,28.1
2019-01-15T07:16:02.046Z,28
2019-01-15T07:16:52.193Z,27.9
2019-01-15T07:17:41.395Z,27.8
2019-01-15T07:18:31.738Z,27.6
2019-01-15T07:19:21.213Z,27.4
2019-01-15T07:20:12.877Z,27.3
2019-01-15T07:21:03.466Z,27.1
2019-01-15T07:21:52.988Z,27
2019-01-15T07:22:43.123Z,26.9
2019-01-15T07:23:33.107Z,26.1
2019-01-15T07:24:22.622Z,26.1
2019-01-15T07:25:12.938Z,26.3
2019-01-15T07:26:03.274Z,26.7
2019-01-15T07:26:52.523Z,26.9
2019-01-15T07:27:42.575Z,26.9
2019-01-15T07:28:32.402Z,27
2019-01-15T07:29:22.664Z,27.1
2019-01-15T07:30:13.044Z,27.3
2019-01-15T07:31:02.782Z,27.4
2019-01-15T07:31:53.109Z,27.6
2019-01-15T07:32:43.749Z,27.8
2019-01-15T07:33:33.845Z,27.9
2019-01-15T07:34:23.320Z,28
2019-01-15T07:35:13.702Z,28.1
2019-01-15T07:36:03.689Z,28.2
2019-01-15T07:36:53.152Z,28.3
2019-01-15T07:37:43.517Z,28.4
2019-01-15T07:38:33.011Z,28.4
2019-01-15T07:39:23.622Z,28.4
2019-01-15T07:40:13.946Z,28.2
2019-01-15T07:41:03.784Z,28.1
2019-01-15T07:41:53.257Z,27.9
2019-01-15T07:42:43.729Z,27.8
2019-01-15T07:43:34.194Z,27.6
2019-01-15T07:44:24.144Z,27.5
2019-01-15T07:45:14.551Z,27.3
2019-01-15T07:46:02.959Z,27.2
2019-01-15T07:46:54.168Z,27.1
2019-01-15T07:47:44.600Z,26.9
2019-01-15T07:48:34.425Z,26.1
2019-01-15T07:49:23.861Z,25.7
2019-01-15T07:50:13.713Z,25.4
2019-01-15T07:51:04.332Z,25.4
2019-01-15T07:51:54.302Z,25.5
2019-01-15T07:52:44.081Z,25.6
2019-01-15T07:53:34.888Z,25.9
2019-01-15T07:54:25.251Z,26.4
2019-01-15T07:55:16.443Z,27
2019-01-15T07:56:05.070Z,27.1
2019-01-15T07:56:54.553Z,27
2019-01-15T07:57:44.646Z,27.1
2019-01-15T07:58:35.473Z,27.1
2019-01-15T07:59:24.974Z,27.3
2019-01-15T08:00:15.293Z,27.4
2019-01-15T08:01:05.095Z,27.6
2019-01-15T08:01:55.156Z,27.7
2019-01-15T08:02:45.266Z,27.8
2019-01-15T08:03:37.018Z,27.9
2019-01-15T08:04:25.005Z,28
2019-01-15T08:05:15.083Z,28.1
2019-01-15T08:06:05.962Z,28.2
2019-01-15T08:06:55.474Z,28.3
2019-01-15T08:07:45.820Z,28.3
2019-01-15T08:08:35.907Z,28.4
2019-01-15T08:09:26.285Z,28.4
2019-01-15T08:10:15.986Z,28.3
2019-01-15T08:11:06.939Z,28.1
2019-01-15T08:11:55.358Z,27.9
2019-01-15T08:13:36.500Z,27.7
2019-01-15T08:14:25.989Z,27.5
2019-01-15T08:15:16.607Z,27.4
2019-01-15T08:16:06.149Z,27.2
2019-01-15T08:16:55.962Z,27.1
2019-01-15T08:17:45.650Z,26.9
2019-01-15T08:18:35.807Z,26.3
2019-01-15T08:19:26.109Z,25.8
2019-01-15T08:20:16.691Z,25.6
2019-01-15T08:21:05.694Z,25.4
2019-01-15T08:21:58.125Z,25.4
2019-01-15T08:22:46.830Z,25.5
2019-01-15T08:23:36.599Z,25.7
2019-01-15T08:24:26.473Z,26.1
2019-01-15T08:25:17.076Z,26.6
2019-01-15T08:26:06.848Z,26.9
2019-01-15T08:26:56.599Z,26.8
2019-01-15T08:27:47.471Z,26.9
2019-01-15T08:28:37.513Z,27
2019-01-15T08:29:27.557Z,27.1
2019-01-15T08:30:16.756Z,27.2
2019-01-15T08:31:06.101Z,27.4
2019-01-15T08:31:57.486Z,27.5
2019-01-15T08:32:46.998Z,27.6
2019-01-15T08:33:37.863Z,27.7
2019-01-15T08:35:17.925Z,27.9
2019-01-15T08:36:07.770Z,28
2019-01-15T08:36:57.796Z,28.1
2019-01-15T08:37:47.550Z,28.3
2019-01-15T08:38:37.580Z,28.5
2019-01-15T08:39:26.905Z,28.3
2019-01-15T08:40:17.770Z,27.4
2019-01-15T08:41:08.043Z,26.4
2019-01-15T08:41:58.436Z,25.6
2019-01-15T08:42:48.280Z,25.3
2019-01-15T08:43:38.499Z,25.3
2019-01-15T08:44:28.474Z,25.8
2019-01-15T08:45:18.413Z,26.4
2019-01-15T08:46:08.458Z,26.9
2019-01-15T08:46:57.407Z,26.9
2019-01-15T08:47:47.945Z,27
2019-01-15T08:48:38.015Z,27.1
2019-01-15T08:49:28.637Z,27.2
2019-01-15T08:50:18.944Z,27.3
2019-01-15T08:51:08.163Z,27.5
2019-01-15T08:51:58.779Z,27.7
2019-01-15T08:53:37.872Z,27.9
2019-01-15T08:54:30.742Z,28.1
2019-01-15T08:55:18.724Z,28.1
2019-01-15T08:56:09.080Z,28.3
2019-01-15T08:56:58.884Z,28.3
2019-01-15T08:57:48.906Z,28.4
2019-01-15T08:58:39.234Z,28.4
2019-01-15T08:59:29.330Z,28.3
2019-01-15T09:00:18.829Z,28.1
2019-01-15T09:01:08.672Z,28
2019-01-15T09:01:59.452Z,27.9
2019-01-15T09:02:49.666Z,27.7
2019-01-15T09:03:39.917Z,27.6
2019-01-15T09:04:29.646Z,27.4
2019-01-15T09:05:19.421Z,27.3
2019-01-15T09:06:09.239Z,27.1
2019-01-15T09:07:00.319Z,27
2019-01-15T09:07:49.571Z,26.9
2019-01-15T09:08:39.916Z,26.1
2019-01-15T09:09:29.673Z,26.1
2019-01-15T09:10:20.126Z,26.3
2019-01-15T09:11:10.771Z,26.8
2019-01-15T09:11:59.451Z,27.3
2019-01-15T09:12:49.186Z,27.4
2019-01-15T09:13:40.256Z,27.3
2019-01-15T09:14:36.273Z,27.3
2019-01-15T09:15:21.166Z,27.4
2019-01-15T09:16:09.645Z,27.4
2019-01-15T09:17:02.176Z,27.6
2019-01-15T09:17:50.345Z,27.7
2019-01-15T09:19:30.185Z,27.9
2019-01-15T09:20:21.846Z,28
2019-01-15T09:21:10.598Z,28.1
2019-01-15T09:22:00.093Z,28.2
2019-01-15T09:22:50.709Z,28.3
2019-01-15T09:23:41.275Z,28.3
2019-01-15T09:24:31.271Z,28.4
2019-01-15T09:25:20.925Z,28.4
2019-01-15T09:26:11.510Z,28.3
2019-01-15T09:27:01.433Z,28.2
2019-01-15T09:27:51.625Z,28
2019-01-15T09:28:40.988Z,27.9
2019-01-15T09:29:30.840Z,27.7
2019-01-15T09:30:21.743Z,27.6
2019-01-15T09:31:11.703Z,27.4
2019-01-15T09:32:01.809Z,27.3
2019-01-15T09:32:51.338Z,27.1
2019-01-15T09:33:41.660Z,27
2019-01-15T09:34:31.382Z,26.9
2019-01-15T09:35:21.457Z,26.3
2019-01-15T09:36:11.507Z,26.2
2019-01-15T09:37:01.606Z,26.3
2019-01-15T09:37:51.619Z,26.6
2019-01-15T09:38:42.262Z,27
2019-01-15T09:39:31.438Z,27.5
2019-01-15T09:40:22.401Z,27.3
2019-01-15T09:41:12.102Z,27.2
2019-01-15T09:42:01.910Z,27.3
2019-01-15T09:42:51.192Z,27.3
2019-01-15T09:43:41.713Z,27.4
2019-01-15T09:44:39.891Z,27.6
2019-01-15T09:45:22.804Z,27.7
2019-01-15T09:47:02.214Z,27.9
2019-01-15T09:47:52.667Z,27.9
2019-01-15T09:48:42.414Z,28.1
2019-01-15T09:49:32.393Z,28.1
2019-01-15T09:50:24.459Z,28.3
2019-01-15T09:51:12.517Z,28.3
2019-01-15T09:52:02.861Z,28.4
2019-01-15T09:52:52.621Z,28.4
2019-01-15T09:53:42.113Z,28.3
2019-01-15T09:54:32.728Z,28.2
2019-01-15T09:55:23.366Z,28
2019-01-15T09:56:12.563Z,27.9
2019-01-15T09:57:02.406Z,27.8
2019-01-15T09:57:52.963Z,27.6
2019-01-15T09:58:43.296Z,27.4
2019-01-15T09:59:33.354Z,27.3
2019-01-15T10:00:23.406Z,27.1
2019-01-15T10:01:13.450Z,27
2019-01-15T10:02:03.565Z,26.7
2019-01-15T10:02:53.315Z,26.1
2019-01-15T10:03:43.878Z,25.8
2019-01-15T10:04:33.778Z,25.6
2019-01-15T10:05:23.510Z,25.4
2019-01-15T10:07:51.588Z,25.7
2019-01-15T10:08:41.392Z,26.3
2019-01-15T10:09:31.440Z,26.8
2019-01-15T10:10:21.021Z,27.3
2019-01-15T10:11:11.220Z,27.2
2019-01-15T10:12:02.128Z,27.1
2019-01-15T10:12:51.940Z,27.2
2019-01-15T10:13:42.064Z,27.3
2019-01-15T10:14:32.305Z,27.4
2019-01-15T10:15:20.935Z,27.5
2019-01-15T10:16:14.205Z,27.6
2019-01-15T10:17:02.492Z,27.8
2019-01-15T10:17:51.737Z,27.9
2019-01-15T10:18:42.572Z,28.2
2019-01-15T10:19:31.804Z,28.4
2019-01-15T10:20:22.747Z,28.1
2019-01-15T10:21:12.744Z,27.3
2019-01-15T10:22:02.548Z,26.3
2019-01-15T10:22:52.956Z,25.5
2019-01-15T10:23:42.407Z,25.3
2019-01-15T10:24:32.446Z,25.5
2019-01-15T10:25:22.761Z,26
2019-01-15T10:26:12.576Z,26.6
2019-01-15T10:27:03.149Z,27.2
2019-01-15T10:27:53.261Z,27.4
2019-01-15T10:28:42.749Z,27.3
2019-01-15T10:29:32.249Z,27.3
2019-01-15T10:30:23.099Z,27.4
2019-01-15T10:31:13.151Z,27.4
2019-01-15T10:32:02.937Z,27.6
2019-01-15T10:32:52.203Z,27.7
2019-01-15T10:34:33.358Z,27.9
2019-01-15T10:35:23.484Z,28.1
2019-01-15T10:36:13.463Z,28.2
2019-01-15T10:37:02.682Z,28.3
2019-01-15T10:37:53.017Z,28.3
2019-01-15T10:38:43.371Z,28.4
2019-01-15T10:39:33.988Z,28.4
2019-01-15T10:40:23.233Z,28.2
2019-01-15T10:41:14.118Z,28.1
2019-01-15T10:42:03.596Z,27.9
2019-01-15T10:43:44.278Z,27.6
2019-01-15T10:44:34.316Z,27.5
2019-01-15T10:45:23.846Z,27.4
2019-01-15T10:46:14.153Z,27.2
2019-01-15T10:47:04.061Z,27.1
2019-01-15T10:47:54.001Z,26.9
2019-01-15T10:48:43.795Z,26.8
2019-01-15T10:49:34.118Z,26.1
2019-01-15T10:50:23.880Z,26.2
2019-01-15T10:51:14.277Z,26.4
2019-01-15T10:52:04.579Z,26.8
2019-01-15T10:52:54.628Z,27.3
2019-01-15T10:53:44.902Z,27.2
2019-01-15T10:54:34.701Z,27.1
2019-01-15T10:55:24.752Z,27.2
2019-01-15T10:56:14.339Z,27.3
2019-01-15T10:57:04.104Z,27.4
2019-01-15T10:57:54.447Z,27.5
2019-01-15T10:58:45.262Z,27.6
2019-01-15T10:59:35.067Z,27.8
2019-01-15T11:00:24.904Z,27.9
2019-01-15T11:01:15.172Z,27.9
2019-01-15T11:02:04.651Z,28.1
2019-01-15T11:02:55.284Z,28.1
2019-01-15T11:03:45.372Z,28.3
2019-01-15T11:04:35.404Z,28.3
2019-01-15T11:05:25.001Z,28.4
2019-01-15T11:06:14.670Z,28.4
2019-01-15T11:07:05.569Z,28.4
2019-01-15T11:07:55.594Z,28.3
2019-01-15T11:08:45.691Z,28.1
2019-01-15T11:09:34.738Z,27.9
2019-01-15T11:11:15.553Z,27.6
2019-01-15T11:12:05.667Z,27.5
2019-01-15T11:12:55.461Z,27.4
2019-01-15T11:13:44.901Z,27.3
2019-01-15T11:14:36.169Z,27.1
2019-01-15T11:15:26.103Z,26.9
2019-01-15T11:16:16.464Z,26.3
2019-01-15T11:17:05.479Z,26.3
2019-01-15T11:17:55.851Z,26.3
2019-01-15T11:18:47.341Z,26.7
2019-01-15T11:19:35.908Z,27.2
2019-01-15T11:20:26.442Z,27.6
2019-01-15T11:21:16.840Z,27.3
2019-01-15T11:22:05.719Z,27.3
2019-01-15T11:22:56.893Z,27.3
2019-01-15T11:23:46.111Z,27.4
2019-01-15T11:24:36.443Z,27.5
2019-01-15T11:25:26.535Z,27.6
2019-01-15T11:26:16.393Z,27.8
2019-01-15T11:27:06.893Z,27.9
2019-01-15T11:27:56.999Z,27.9
2019-01-15T11:28:47.348Z,28
2019-01-15T11:29:37.328Z,28.1